WetterOnline ( https://www.wetteronline.de )

Wetter aktuell Dierhagen

Aktuelles Wetter: Barth (7m)

6-stündlich | Neueste Meldungen
Ortszeit Temperatur Wetter
Do, 22.02. 1:00 7.4° C wolkig
Mi, 21.02. 19:00 8.8° C bedeckt
Mi, 21.02. 13:00 9.8° C wolkenlos
Mi, 21.02. 7:00 8.4° C leichter Regen
Mi, 21.02. 1:00 7.6° C leichter Regen
Di, 20.02. 19:00 7.7° C bewölkt
Di, 20.02. 13:00 8.1° C bedeckt
Di, 20.02. 7:00 5.7° C bedeckt
Ortszeit Temperatur Wetter
Do, 22.02. 5:30 7.4° C leichter Regen
Do, 22.02. 5:20 7.4° C leichter Regen
Do, 22.02. 5:10 7.5° C leichter Regen
Do, 22.02. 5:00 7.6° C leichter Regen
Do, 22.02. 4:50 7.6° C leichter Regen
Do, 22.02. 4:40 7.7° C leichter Regen
Do, 22.02. 4:30 7.7° C Sprühregen
Do, 22.02. 4:00 8.0° C Sprühregen
Do, 22.02. 3:30 7.8° C bedeckt
Do, 22.02. 3:00 7.6° C leichter Regen
Do, 22.02. 2:30 7.0° C bedeckt
Ortszeit Relative Feuchte Sichtweite
Do, 22.02. 1:00 80% 40 km
Mi, 21.02. 19:00 83% 30 km
Mi, 21.02. 13:00 68% 50 km
Mi, 21.02. 7:00 95% 2.3 km
Mi, 21.02. 1:00 88% 7 km
Di, 20.02. 19:00 85% 19 km
Di, 20.02. 13:00 82% 17 km
Di, 20.02. 7:00 97% 15 km
Ortszeit Relative Feuchte Sichtweite
Do, 22.02. 5:30 85% 26 km
Do, 22.02. 5:20 85% -
Do, 22.02. 5:10 84% -
Do, 22.02. 5:00 82% 26 km
Do, 22.02. 4:50 82% -
Do, 22.02. 4:40 82% -
Do, 22.02. 4:30 81% 45 km
Do, 22.02. 4:00 79% 55 km
Do, 22.02. 3:30 79% 50 km
Do, 22.02. 3:00 79% 40 km
Do, 22.02. 2:30 82% 40 km
Ortszeit Niederschlagsmenge Niederschlagsart
Do, 22.02. 1:00 0.0 l/m2 in 6 Std. -
Mi, 21.02. 19:00 0.2 l/m2 in 12 Std. -
Mi, 21.02. 13:00 0.2 l/m2 in 6 Std. Regen
Mi, 21.02. 7:00 0.8 l/m2 in 12 Std. Regen
Mi, 21.02. 1:00 0.3 l/m2 in 6 Std. Regen
Di, 20.02. 19:00 0.1 l/m2 in 12 Std. -
Di, 20.02. 13:00 0.1 l/m2 in 6 Std. Sprühregen
Di, 20.02. 7:00 0.6 l/m2 in 12 Std. Regen
Ortszeit Niederschlagsmenge Niederschlagsart
Do, 22.02. 5:30 0.2 l/m2 in 30 Min -
Do, 22.02. 5:20 keine Meldung -
Do, 22.02. 5:10 keine Meldung -
Do, 22.02. 5:00 <0.05 l/m2 in 1 Std. Regen
Do, 22.02. 4:50 keine Meldung -
Do, 22.02. 4:40 keine Meldung -
Do, 22.02. 4:30 <0.05 l/m2 in 30 Min -
Do, 22.02. 4:00 <0.05 l/m2 in 1 Std. Regen
Do, 22.02. 3:30 <0.05 l/m2 in 30 Min Schneeregen
Do, 22.02. 3:00 <0.05 l/m2 in 1 Std. Regen
Do, 22.02. 2:30 0.0 l/m2 in 30 Min -
Ortszeit Stärke Spitze Richtung
km/h Bft. km/h Grad Sektor
Do, 22.02. 1:00 14 3 25 180° S
Mi, 21.02. 19:00 18 3 50 210° SW
Mi, 21.02. 13:00 33 5 59 260° W
Mi, 21.02. 7:00 25 4 40 250° W
Mi, 21.02. 1:00 18 3 36 220° SW
Di, 20.02. 19:00 22 4 50 260° W
Di, 20.02. 13:00 32 5 50 270° W
Di, 20.02. 7:00 19 3 41 280° W
Ortszeit Stärke Spitze Richtung
km/h Bft. km/h Grad Sektor
Do, 22.02. 5:30 17 3 26 180° S
Do, 22.02. 5:20 17 3 - 180° S
Do, 22.02. 5:10 17 3 - 180° S
Do, 22.02. 5:00 14 3 29 180° S
Do, 22.02. 4:50 14 3 - 180° S
Do, 22.02. 4:40 15 3 - 180° S
Do, 22.02. 4:30 15 3 30 170° S
Do, 22.02. 4:00 17 3 24 180° S
Do, 22.02. 3:30 14 3 22 170° S
Do, 22.02. 3:00 13 3 20 180° S
Do, 22.02. 2:30 11 2 22 160° S
Ortszeit Untergrenze Bedeckung Gattung
total tief tief mittel hoch
Do, 22.02. 1:00 2100 m 8/8 2/8 - - -
Mi, 21.02. 19:00 900 m 8/8 8/8 - - -
Mi, 21.02. 13:00 - 0/8 0/8 - - -
Mi, 21.02. 7:00 210 m 7/8 7/8 - - -
Mi, 21.02. 1:00 480 m 7/8 7/8 - - -
Di, 20.02. 19:00 1800 m 8/8 5/8 - - -
Di, 20.02. 13:00 420 m 8/8 8/8 - - -
Di, 20.02. 7:00 120 m 8/8 8/8 - - -
Ortszeit Bedeckungsgrad in Achtel und Wolkenuntergrenze
Do, 22.02. 5:30 7(660m) 8(810m)
Do, 22.02. 5:20 7(660m) 8(810m)
Do, 22.02. 5:10 8
Do, 22.02. 5:00 2(690m) 8(960m)
Do, 22.02. 4:50 2(690m) 8(960m)
Do, 22.02. 4:40 8
Do, 22.02. 4:30 3(750m) 8(1500m) 8(3600m)
Do, 22.02. 4:00 1(780m) 8(1140m) 8(2100m)
Do, 22.02. 3:30 8(960m)
Do, 22.02. 3:00 6(1020m) 8(3900m) 8(4800m)
Do, 22.02. 2:30 2(1200m) 8(2400m) 8(6000m)
Ortszeit Luftdruck NN (hPa) Tendenz (hPa in 3 Std.)
Do, 22.02. 1:00 1002 - 3,1
Mi, 21.02. 19:00 1009 - 1,6
Mi, 21.02. 13:00 1012 - 0,3
Mi, 21.02. 7:00 1013 - 1,3
Mi, 21.02. 1:00 1017 - 1,6
Di, 20.02. 19:00 1020 - 0,5
Di, 20.02. 13:00 1021 + 0,1
Di, 20.02. 7:00 1019 + 1,3
Ortszeit Luftdruck NN (hPa) Tendenz (hPa in 3 Std.)
Do, 22.02. 5:30 997 - 3,1
Do, 22.02. 5:20 997 keine Meldung
Do, 22.02. 5:10 997 keine Meldung
Do, 22.02. 5:00 997 - 3,5
Do, 22.02. 4:50 997 keine Meldung
Do, 22.02. 4:40 997 keine Meldung
Do, 22.02. 4:30 998 - 3,8
Do, 22.02. 4:00 998 - 4,0
Do, 22.02. 3:30 999 - 3,8
Do, 22.02. 3:00 999 - 3,9
Do, 22.02. 2:30 1000 - 3,8
Ortszeit Schneehöhe (cm)
Do, 22.02. 1:00 0
Mi, 21.02. 19:00 0
Mi, 21.02. 13:00 0
Mi, 21.02. 7:00 0
Mi, 21.02. 1:00 0
Di, 20.02. 19:00 0
Di, 20.02. 13:00 0
Di, 20.02. 7:00 0
Ortszeit Schneehöhe (cm)
Do, 22.02. 5:30 0
Do, 22.02. 5:20 0
Do, 22.02. 5:10 -
Do, 22.02. 5:00 0
Do, 22.02. 4:50 0
Do, 22.02. 4:40 -
Do, 22.02. 4:30 0
Do, 22.02. 4:00 0
Do, 22.02. 3:30 0
Do, 22.02. 3:00 0
Do, 22.02. 2:30 0
Link zu dieser Seite / Seite empfehlen

Das Wetter in ...